Time;durP1;ratioP1;P1;durP2;ratioP2;P2;SDS_P1;SDS_P2;PMS_P1;PMS_P2;Temp;Humidity;BMP_temperature;BMP_pressure;BME280_temperature;BME280_humidity;BME280_pressure;Samples;Min_cycle;Max_cycle;Signal;HPM_P1;HPM_P2
2023/05/29 00:00:47;;;;;;;6.10;3.28;;;;;;;;;;5026123;28;20128;-86
2023/05/29 00:03:13;;;;;;;5.78;3.25;;;;;;;;;;5028314;28;20034;-85
2023/05/29 00:05:38;;;;;;;6.70;3.15;;;;;;;;;;5033638;28;20033;-86
2023/05/29 00:08:04;;;;;;;6.30;3.35;;;;;;;;;;5025877;28;20037;-84
2023/05/29 00:10:31;;;;;;;5.13;3.30;;;;;;;;;;5016757;28;20679;-84
2023/05/29 00:12:57;;;;;;;4.88;3.30;;;;;;;;;;5020838;28;20048;-86
2023/05/29 00:15:23;;;;;;;7.88;3.40;;;;;;;;;;5023060;28;20037;-87
2023/05/29 00:17:49;;;;;;;5.68;3.10;;;;;;;;;;5025794;28;20044;-85
2023/05/29 00:20:15;;;;;;;7.38;3.35;;;;;;;;;;5028310;28;20099;-88
2023/05/29 00:22:41;;;;;;;5.90;3.40;;;;;;;;;;5036776;28;20042;-85
2023/05/29 00:25:07;;;;;;;5.32;3.30;;;;;;;;;;5012264;28;20042;-85
2023/05/29 00:27:34;;;;;;;6.97;3.40;;;;;;;;;;5017772;28;20492;-87
2023/05/29 00:30:00;;;;;;;5.70;3.53;;;;;;;;;;5019266;28;20034;-86
2023/05/29 00:32:27;;;;;;;9.07;3.50;;;;;;;;;;5030160;28;20068;-85
2023/05/29 00:34:53;;;;;;;7.53;3.60;;;;;;;;;;5006444;28;20068;-85
2023/05/29 00:37:21;;;;;;;6.85;3.40;;;;;;;;;;5015247;28;20037;-86
2023/05/29 00:39:49;;;;;;;6.75;3.25;;;;;;;;;;5012003;28;20411;-87
2023/05/29 00:42:15;;;;;;;5.97;3.15;;;;;;;;;;5018269;28;20114;-86
2023/05/29 00:44:40;;;;;;;5.63;3.03;;;;;;;;;;5016615;28;20533;-85
2023/05/29 00:47:06;;;;;;;4.75;3.03;;;;;;;;;;5017962;28;20037;-87
2023/05/29 00:49:34;;;;;;;5.30;3.10;;;;;;;;;;5031471;28;20029;-89
2023/05/29 00:52:00;;;;;;;5.45;3.40;;;;;;;;;;5038965;28;20491;-86
2023/05/29 00:54:29;;;;;;;5.32;3.03;;;;;;;;;;5015314;28;20045;-85
2023/05/29 00:56:57;;;;;;;5.00;3.28;;;;;;;;;;5021700;28;20057;-86
2023/05/29 00:59:23;;;;;;;6.80;3.42;;;;;;;;;;5013493;28;20455;-86
2023/05/29 01:01:50;;;;;;;6.53;3.05;;;;;;;;;;5012651;28;20029;-85
2023/05/29 01:04:17;;;;;;;5.72;3.00;;;;;;;;;;5022728;28;20033;-86
2023/05/29 01:06:42;;;;;;;5.80;3.13;;;;;;;;;;5031120;28;20033;-86
2023/05/29 01:09:08;;;;;;;7.07;3.60;;;;;;;;;;5026064;28;20125;-86
2023/05/29 01:12:10;;;;;;;5.35;3.38;;;;;;;;;;5031135;28;20029;-88
2023/05/29 01:15:08;;;;;;;5.85;3.30;;;;;;;;;;4976831;28;20511;-86
2023/05/29 01:18:04;;;;;;;5.88;3.25;;;;;;;;;;5032894;28;20531;-87
2023/05/29 01:20:42;;;;;;;7.22;3.30;;;;;;;;;;5004652;28;20069;-87
2023/05/29 01:23:20;;;;;;;6.88;3.22;;;;;;;;;;5026244;28;20033;-83
2023/05/29 01:26:03;;;;;;;6.75;3.30;;;;;;;;;;5013810;28;20062;-86
2023/05/29 01:28:37;;;;;;;4.80;3.00;;;;;;;;;;5028269;28;20034;-86
2023/05/29 01:31:03;;;;;;;5.50;3.13;;;;;;;;;;5014773;28;20107;-85
2023/05/29 01:33:29;;;;;;;4.63;2.85;;;;;;;;;;4998378;28;20061;-85
2023/05/29 01:35:55;;;;;;;4.78;3.03;;;;;;;;;;5017076;28;20076;-86
2023/05/29 01:38:22;;;;;;;6.32;3.25;;;;;;;;;;5003809;28;20034;-85
2023/05/29 01:40:51;;;;;;;7.53;3.20;;;;;;;;;;5025304;28;20030;-87
2023/05/29 01:43:16;;;;;;;5.38;3.00;;;;;;;;;;5030675;28;20048;-86
2023/05/29 01:45:42;;;;;;;6.80;3.30;;;;;;;;;;5015936;28;20033;-86
2023/05/29 01:48:08;;;;;;;7.35;3.35;;;;;;;;;;5016017;28;20476;-86
2023/05/29 01:50:34;;;;;;;6.20;3.17;;;;;;;;;;5018900;28;20033;-88
2023/05/29 01:53:00;;;;;;;5.50;3.40;;;;;;;;;;5030262;28;20499;-86
2023/05/29 01:55:26;;;;;;;5.60;3.10;;;;;;;;;;5025193;28;20060;-87
2023/05/29 01:57:52;;;;;;;5.32;3.08;;;;;;;;;;5026393;28;20103;-86
2023/05/29 02:00:18;;;;;;;6.95;3.17;;;;;;;;;;5013872;28;20026;-87
2023/05/29 02:02:46;;;;;;;6.82;3.28;;;;;;;;;;5029786;28;20044;-87
2023/05/29 02:05:11;;;;;;;7.28;3.50;;;;;;;;;;5026207;28;20082;-88
2023/05/29 02:07:38;;;;;;;6.05;3.40;;;;;;;;;;5027633;28;20034;-85
2023/05/29 02:10:05;;;;;;;7.03;3.55;;;;;;;;;;5039309;28;20361;-86
2023/05/29 02:12:31;;;;;;;7.63;3.10;;;;;;;;;;5025999;28;20033;-84
2023/05/29 02:14:56;;;;;;;5.03;3.53;;;;;;;;;;5016600;28;20052;-85
2023/05/29 02:17:22;;;;;;;6.40;3.10;;;;;;;;;;5031869;28;20037;-87
2023/05/29 02:19:48;;;;;;;6.57;3.25;;;;;;;;;;5022884;28;20034;-88
2023/05/29 02:22:14;;;;;;;7.05;3.28;;;;;;;;;;5037936;28;20028;-86
2023/05/29 02:24:39;;;;;;;5.28;3.20;;;;;;;;;;5024782;28;20052;-85
2023/05/29 02:27:06;;;;;;;7.38;3.50;;;;;;;;;;5027627;28;20025;-86
2023/05/29 02:29:33;;;;;;;6.00;3.28;;;;;;;;;;5034293;28;20034;-84
2023/05/29 02:31:58;;;;;;;5.75;3.25;;;;;;;;;;5031183;28;20033;-86
2023/05/29 02:34:24;;;;;;;6.35;3.67;;;;;;;;;;5018935;28;20440;-86
2023/05/29 02:36:51;;;;;;;5.45;3.20;;;;;;;;;;5021380;28;20033;-85
2023/05/29 02:39:17;;;;;;;5.32;3.20;;;;;;;;;;5026613;28;20051;-87
2023/05/29 02:41:43;;;;;;;4.75;3.15;;;;;;;;;;5032069;28;20029;-85
2023/05/29 02:44:09;;;;;;;7.28;3.50;;;;;;;;;;5031008;28;20026;-86
2023/05/29 02:46:34;;;;;;;9.63;3.45;;;;;;;;;;5019113;28;20083;-84
2023/05/29 02:49:00;;;;;;;5.50;3.28;;;;;;;;;;5023430;28;20044;-84
2023/05/29 02:51:27;;;;;;;5.97;3.30;;;;;;;;;;5026908;28;20041;-85
2023/05/29 02:53:52;;;;;;;5.85;3.30;;;;;;;;;;5029856;28;20025;-86
2023/05/29 02:56:18;;;;;;;6.00;3.33;;;;;;;;;;5026600;28;20610;-84
2023/05/29 02:58:45;;;;;;;5.82;3.45;;;;;;;;;;5017961;28;20112;-85
2023/05/29 03:01:10;;;;;;;7.25;3.30;;;;;;;;;;5020338;28;20025;-86
2023/05/29 03:03:36;;;;;;;6.50;3.65;;;;;;;;;;5008703;28;20037;-86
2023/05/29 03:06:02;;;;;;;9.93;3.80;;;;;;;;;;5030364;28;20036;-85
2023/05/29 03:08:28;;;;;;;5.95;3.40;;;;;;;;;;5029552;28;20046;-87
2023/05/29 03:10:54;;;;;;;6.15;2.95;;;;;;;;;;5016632;28;20424;-86
2023/05/29 03:13:20;;;;;;;7.57;3.63;;;;;;;;;;5030400;28;20484;-86
2023/05/29 03:15:56;;;;;;;7.75;3.40;;;;;;;;;;5020988;28;20671;-87
2023/05/29 03:18:23;;;;;;;5.28;3.13;;;;;;;;;;5017359;28;20430;-86
2023/05/29 03:20:49;;;;;;;9.68;3.20;;;;;;;;;;5043078;28;20040;-87
2023/05/29 03:23:14;;;;;;;8.40;3.80;;;;;;;;;;5043186;28;20551;-86
2023/05/29 03:25:40;;;;;;;5.55;3.40;;;;;;;;;;5030206;28;20030;-86
2023/05/29 03:28:06;;;;;;;8.57;3.40;;;;;;;;;;5007747;28;20026;-87
2023/05/29 03:30:32;;;;;;;9.38;3.70;;;;;;;;;;5029187;28;20025;-87
2023/05/29 03:33:03;;;;;;;4.53;3.15;;;;;;;;;;5034349;28;20615;-86
2023/05/29 03:35:40;;;;;;;5.55;3.17;;;;;;;;;;5027634;28;20021;-85
2023/05/29 03:38:07;;;;;;;5.95;3.80;;;;;;;;;;5019875;28;20041;-85
2023/05/29 03:40:32;;;;;;;4.82;3.08;;;;;;;;;;5023667;28;20021;-85
2023/05/29 03:42:58;;;;;;;6.07;3.28;;;;;;;;;;5015300;28;20376;-85
2023/05/29 03:45:23;;;;;;;6.82;3.10;;;;;;;;;;5031997;28;20021;-86
2023/05/29 03:47:49;;;;;;;7.97;3.58;;;;;;;;;;5029421;28;20034;-85
2023/05/29 03:50:15;;;;;;;4.85;3.20;;;;;;;;;;5020304;28;20043;-86
2023/05/29 03:52:42;;;;;;;6.30;3.50;;;;;;;;;;5021159;28;20395;-87
2023/05/29 03:55:12;;;;;;;5.15;3.25;;;;;;;;;;5025641;28;20032;-85
2023/05/29 03:57:42;;;;;;;5.53;3.60;;;;;;;;;;5030091;28;20519;-86
2023/05/29 04:00:12;;;;;;;5.90;3.28;;;;;;;;;;5015364;28;20063;-87
2023/05/29 04:02:41;;;;;;;4.90;3.30;;;;;;;;;;5017086;28;20399;-87
2023/05/29 04:05:08;;;;;;;4.85;3.38;;;;;;;;;;5020866;28;20037;-87
2023/05/29 04:07:38;;;;;;;5.65;3.63;;;;;;;;;;5028188;28;20033;-85
2023/05/29 04:10:06;;;;;;;6.97;3.15;;;;;;;;;;5028684;28;20112;-87
2023/05/29 04:12:33;;;;;;;6.63;4.10;;;;;;;;;;5015606;28;20025;-85
2023/05/29 04:14:59;;;;;;;7.18;3.40;;;;;;;;;;5015504;28;20036;-84
2023/05/29 04:17:25;;;;;;;6.95;3.45;;;;;;;;;;5002693;28;20029;-86
2023/05/29 04:19:50;;;;;;;5.93;3.30;;;;;;;;;;5016717;28;20029;-86
2023/05/29 04:22:16;;;;;;;6.82;3.50;;;;;;;;;;5032194;28;20691;-86
2023/05/29 04:24:42;;;;;;;5.65;3.40;;;;;;;;;;5026573;28;20030;-85
2023/05/29 04:27:12;;;;;;;5.50;3.33;;;;;;;;;;5027067;28;20372;-85
2023/05/29 04:29:42;;;;;;;5.47;3.45;;;;;;;;;;5001197;28;20442;-86
2023/05/29 04:32:11;;;;;;;4.93;3.33;;;;;;;;;;5021460;28;20368;-85
2023/05/29 04:34:43;;;;;;;5.40;3.30;;;;;;;;;;5028714;28;20040;-87
2023/05/29 04:37:10;;;;;;;5.43;3.50;;;;;;;;;;5035181;28;20022;-84
2023/05/29 04:39:37;;;;;;;5.10;3.58;;;;;;;;;;5020063;28;20072;-86
2023/05/29 04:42:05;;;;;;;10.40;3.50;;;;;;;;;;5018934;28;20093;-85
2023/05/29 04:44:30;;;;;;;6.72;3.55;;;;;;;;;;5023430;28;20033;-85
2023/05/29 04:46:58;;;;;;;6.72;3.60;;;;;;;;;;5031639;28;20363;-87
2023/05/29 04:49:24;;;;;;;6.68;3.65;;;;;;;;;;5029563;28;20128;-85
2023/05/29 04:51:53;;;;;;;8.95;4.22;;;;;;;;;;5026328;28;20062;-86
2023/05/29 04:54:19;;;;;;;8.77;3.70;;;;;;;;;;5019242;28;20402;-86
2023/05/29 04:56:46;;;;;;;12.27;3.42;;;;;;;;;;5022359;28;20056;-87
2023/05/29 04:59:13;;;;;;;7.68;3.60;;;;;;;;;;5030447;28;20057;-87
2023/05/29 05:01:39;;;;;;;6.68;3.58;;;;;;;;;;5015493;28;20495;-86
2023/05/29 05:04:05;;;;;;;6.75;3.72;;;;;;;;;;5024892;28;20026;-86
2023/05/29 05:06:30;;;;;;;6.28;3.90;;;;;;;;;;5034227;23;20042;-87
2023/05/29 05:08:57;;;;;;;6.22;3.80;;;;;;;;;;5004014;28;20125;-86
2023/05/29 05:11:23;;;;;;;6.03;3.58;;;;;;;;;;5014331;28;20092;-86
2023/05/29 05:13:49;;;;;;;6.82;3.83;;;;;;;;;;4999238;28;20042;-86
2023/05/29 05:16:16;;;;;;;8.82;4.22;;;;;;;;;;5015039;28;20026;-86
2023/05/29 05:18:43;;;;;;;6.03;3.78;;;;;;;;;;4998892;28;20076;-86
2023/05/29 05:21:10;;;;;;;5.95;3.70;;;;;;;;;;4988622;28;20026;-87
2023/05/29 05:23:36;;;;;;;6.45;3.88;;;;;;;;;;4992291;28;20030;-86
2023/05/29 05:26:02;;;;;;;7.55;4.05;;;;;;;;;;4994832;28;20111;-87
2023/05/29 05:28:28;;;;;;;8.07;3.83;;;;;;;;;;4986537;28;20046;-86
2023/05/29 05:30:54;;;;;;;6.80;3.72;;;;;;;;;;4984872;28;20026;-86
2023/05/29 05:33:20;;;;;;;6.40;3.85;;;;;;;;;;5000416;28;20034;-85
2023/05/29 05:35:46;;;;;;;6.40;4.00;;;;;;;;;;4997907;28;20022;-85
2023/05/29 05:38:12;;;;;;;7.18;3.65;;;;;;;;;;5011655;28;20064;-85
2023/05/29 05:40:37;;;;;;;6.18;3.85;;;;;;;;;;4997892;28;20098;-86
2023/05/29 05:43:12;;;;;;;7.70;4.50;;;;;;;;;;4983286;28;20027;-86
2023/05/29 05:45:55;;;;;;;6.53;3.72;;;;;;;;;;4996711;28;20049;-86
2023/05/29 05:48:21;;;;;;;6.72;3.75;;;;;;;;;;4981290;28;20042;-86
2023/05/29 05:50:49;;;;;;;8.02;3.92;;;;;;;;;;4997913;28;20081;-87
2023/05/29 05:53:16;;;;;;;8.43;4.22;;;;;;;;;;4998284;28;20043;-87
2023/05/29 05:55:43;;;;;;;6.18;3.72;;;;;;;;;;4982471;28;20031;-87
2023/05/29 05:58:09;;;;;;;7.18;3.70;;;;;;;;;;4985151;28;20400;-87
2023/05/29 06:00:35;;;;;;;6.32;3.97;;;;;;;;;;4990704;28;20046;-87
2023/05/29 06:03:03;;;;;;;7.60;4.13;;;;;;;;;;5001231;28;20040;-87
2023/05/29 06:05:50;;;;;;;6.22;4.00;;;;;;;;;;4998181;28;20045;-87
2023/05/29 06:08:16;;;;;;;5.82;3.80;;;;;;;;;;5001754;28;20062;-88
2023/05/29 06:10:41;;;;;;;6.10;4.00;;;;;;;;;;5000785;28;20034;-89
2023/05/29 06:13:07;;;;;;;7.90;3.83;;;;;;;;;;4985956;28;20038;-88
2023/05/29 06:15:43;;;;;;;8.02;3.78;;;;;;;;;;4990383;28;20030;-88
2023/05/29 06:18:08;;;;;;;6.05;3.78;;;;;;;;;;5005864;28;20035;-88
2023/05/29 06:20:34;;;;;;;7.53;3.53;;;;;;;;;;5001954;28;20092;-88
2023/05/29 06:23:02;;;;;;;8.70;3.75;;;;;;;;;;4984608;28;20046;-88
2023/05/29 06:25:33;;;;;;;7.47;3.83;;;;;;;;;;4980220;28;20035;-87
2023/05/29 06:28:00;;;;;;;8.00;3.80;;;;;;;;;;4995899;28;20042;-87
2023/05/29 06:30:26;;;;;;;6.10;3.88;;;;;;;;;;4991782;28;20034;-88
2023/05/29 06:32:51;;;;;;;7.45;3.63;;;;;;;;;;4997442;28;20037;-88
2023/05/29 06:35:22;;;;;;;7.43;4.07;;;;;;;;;;4988509;28;20037;-88
2023/05/29 06:37:47;;;;;;;7.03;4.22;;;;;;;;;;4969312;28;20034;-87
2023/05/29 06:40:14;;;;;;;8.23;3.92;;;;;;;;;;4983138;28;20043;-87
2023/05/29 06:42:39;;;;;;;6.72;3.70;;;;;;;;;;4964118;28;20030;-87
2023/05/29 06:45:15;;;;;;;7.32;3.80;;;;;;;;;;5005976;28;20041;-87
2023/05/29 06:47:42;;;;;;;6.40;3.53;;;;;;;;;;4986425;28;20053;-88
2023/05/29 06:50:08;;;;;;;6.53;3.88;;;;;;;;;;5010468;28;20073;-88
2023/05/29 06:52:35;;;;;;;6.00;3.75;;;;;;;;;;5005214;28;20090;-89
2023/05/29 06:55:30;;;;;;;6.57;3.90;;;;;;;;;;4981362;28;20042;-85
2023/05/29 06:57:57;;;;;;;8.23;4.00;;;;;;;;;;4982124;28;20560;-87
2023/05/29 07:00:24;;;;;;;7.25;3.55;;;;;;;;;;4983841;28;20382;-87
2023/05/29 07:03:16;;;;;;;6.10;3.45;;;;;;;;;;4987427;28;20038;-86
2023/05/29 07:05:41;;;;;;;7.55;3.72;;;;;;;;;;4985647;28;20045;-86
2023/05/29 07:08:07;;;;;;;8.60;3.47;;;;;;;;;;5002254;28;20110;-86
2023/05/29 07:10:32;;;;;;;6.35;3.70;;;;;;;;;;5000327;28;20046;-87
2023/05/29 07:12:58;;;;;;;6.65;3.28;;;;;;;;;;5002703;28;20400;-86
2023/05/29 07:15:23;;;;;;;7.40;3.47;;;;;;;;;;4997946;28;20041;-87
2023/05/29 07:17:49;;;;;;;7.72;3.65;;;;;;;;;;5004538;28;20042;-87
2023/05/29 07:20:20;;;;;;;6.63;3.75;;;;;;;;;;5007646;28;20124;-86
2023/05/29 07:22:47;;;;;;;10.65;3.70;;;;;;;;;;5004768;28;20030;-86
2023/05/29 07:25:12;;;;;;;6.38;3.60;;;;;;;;;;5006862;28;20038;-86
2023/05/29 07:27:38;;;;;;;5.85;3.53;;;;;;;;;;5003937;28;20109;-87
2023/05/29 07:30:05;;;;;;;7.20;3.58;;;;;;;;;;4990185;28;20073;-87
2023/05/29 07:32:31;;;;;;;6.53;3.72;;;;;;;;;;5002854;28;20038;-86
2023/05/29 07:34:57;;;;;;;7.38;3.72;;;;;;;;;;4999245;28;20034;-86
2023/05/29 07:37:22;;;;;;;7.53;3.58;;;;;;;;;;4997886;28;20031;-86
2023/05/29 07:39:48;;;;;;;8.18;3.80;;;;;;;;;;4996999;28;20043;-87
2023/05/29 07:42:33;;;;;;;5.07;3.40;;;;;;;;;;4992961;28;20106;-87
2023/05/29 07:44:59;;;;;;;7.32;3.80;;;;;;;;;;5002256;28;20035;-87
2023/05/29 07:47:24;;;;;;;7.25;3.50;;;;;;;;;;4982218;28;20030;-87
2023/05/29 07:49:51;;;;;;;6.60;3.58;;;;;;;;;;4983253;28;20046;-87
2023/05/29 07:52:19;;;;;;;7.88;3.75;;;;;;;;;;4987020;28;20047;-86
2023/05/29 07:54:44;;;;;;;7.35;3.72;;;;;;;;;;5000219;28;20045;-87
2023/05/29 07:57:11;;;;;;;6.20;3.40;;;;;;;;;;4991952;28;20026;-87
2023/05/29 07:59:42;;;;;;;5.88;3.63;;;;;;;;;;4988015;28;20113;-87
2023/05/29 08:02:09;;;;;;;7.20;3.67;;;;;;;;;;4983096;28;20034;-84
2023/05/29 08:05:03;;;;;;;8.70;3.65;;;;;;;;;;4977261;28;20034;-88
2023/05/29 08:07:30;;;;;;;6.60;3.80;;;;;;;;;;4982423;28;20110;-89
2023/05/29 08:09:56;;;;;;;5.38;3.53;;;;;;;;;;4988593;28;20496;-89
2023/05/29 08:12:21;;;;;;;5.45;3.78;;;;;;;;;;4994875;28;20042;-88
2023/05/29 08:14:48;;;;;;;5.90;4.10;;;;;;;;;;4998109;28;20062;-88
2023/05/29 08:17:14;;;;;;;5.80;3.30;;;;;;;;;;5016393;28;20042;-88
2023/05/29 08:19:39;;;;;;;7.75;3.70;;;;;;;;;;5001692;28;20045;-89
2023/05/29 08:22:05;;;;;;;5.55;3.50;;;;;;;;;;4990338;28;20053;-88
2023/05/29 08:24:31;;;;;;;7.15;3.70;;;;;;;;;;4991335;28;20054;-88
2023/05/29 08:26:56;;;;;;;7.25;3.60;;;;;;;;;;5009340;28;20066;-88
2023/05/29 08:29:22;;;;;;;5.85;3.65;;;;;;;;;;4995825;28;20045;-89
2023/05/29 08:31:47;;;;;;;7.03;3.53;;;;;;;;;;4992813;28;20042;-89
2023/05/29 08:34:13;;;;;;;7.53;3.97;;;;;;;;;;5000844;28;20069;-88
2023/05/29 08:36:40;;;;;;;10.15;4.22;;;;;;;;;;4996391;28;20031;-88
2023/05/29 08:39:07;;;;;;;8.68;4.35;;;;;;;;;;4985778;28;20065;-88
2023/05/29 08:41:46;;;;;;;6.07;3.80;;;;;;;;;;4987177;28;20035;-88
2023/05/29 08:44:14;;;;;;;8.52;3.88;;;;;;;;;;4992152;28;20118;-89
2023/05/29 08:46:40;;;;;;;8.48;3.60;;;;;;;;;;4987731;28;20098;-89
2023/05/29 08:49:08;;;;;;;8.15;3.88;;;;;;;;;;4996867;28;20034;-88
2023/05/29 08:51:38;;;;;;;7.43;3.60;;;;;;;;;;4988828;28;20054;-89
2023/05/29 08:54:03;;;;;;;5.85;3.60;;;;;;;;;;4967416;28;20042;-89
2023/05/29 08:56:30;;;;;;;6.07;3.90;;;;;;;;;;4986751;28;20042;-89
2023/05/29 08:58:57;;;;;;;6.10;3.60;;;;;;;;;;5012194;28;20581;-88
2023/05/29 09:01:23;;;;;;;6.32;3.78;;;;;;;;;;4998397;28;20098;-86
2023/05/29 09:03:48;;;;;;;9.50;4.13;;;;;;;;;;4995455;28;20034;-88
2023/05/29 09:06:14;;;;;;;6.03;4.00;;;;;;;;;;4997317;28;20413;-88
2023/05/29 09:08:39;;;;;;;8.60;3.88;;;;;;;;;;5002072;28;20077;-89
2023/05/29 09:11:05;;;;;;;6.75;4.10;;;;;;;;;;4995800;28;20038;-87
2023/05/29 09:13:31;;;;;;;7.90;4.32;;;;;;;;;;4997319;28;20035;-87
2023/05/29 09:15:58;;;;;;;6.38;3.97;;;;;;;;;;5000980;28;20035;-87
2023/05/29 09:18:29;;;;;;;6.75;4.00;;;;;;;;;;5000931;28;20042;-87
2023/05/29 09:20:55;;;;;;;8.10;4.45;;;;;;;;;;5004451;28;20570;-87
2023/05/29 09:23:20;;;;;;;6.30;4.25;;;;;;;;;;5009257;28;20065;-86
2023/05/29 09:25:52;;;;;;;6.60;4.60;;;;;;;;;;5010789;28;20106;-87
2023/05/29 09:28:20;;;;;;;9.77;4.30;;;;;;;;;;4991485;28;20030;-86
2023/05/29 09:30:47;;;;;;;8.48;4.47;;;;;;;;;;4997209;28;20046;-87
2023/05/29 09:33:14;;;;;;;6.32;4.18;;;;;;;;;;4998463;28;20043;-86
2023/05/29 09:35:44;;;;;;;7.00;4.22;;;;;;;;;;5017156;28;20034;-86
2023/05/29 09:38:11;;;;;;;10.13;4.00;;;;;;;;;;5010944;28;20027;-86
2023/05/29 09:40:40;;;;;;;37.10;16.25;;;;;;;;;;4990928;28;20030;-86
2023/05/29 09:43:17;;;;;;;9.55;5.38;;;;;;;;;;4991577;28;20706;-86
2023/05/29 09:45:45;;;;;;;6.95;4.28;;;;;;;;;;4993852;28;20042;-86
2023/05/29 09:48:21;;;;;;;9.70;4.80;;;;;;;;;;5001532;28;20057;-86
2023/05/29 09:50:50;;;;;;;8.45;4.38;;;;;;;;;;5015582;28;20058;-86
2023/05/29 09:53:17;;;;;;;8.02;4.80;;;;;;;;;;5008541;28;20051;-86
2023/05/29 09:55:43;;;;;;;9.75;3.75;;;;;;;;;;5006394;28;20038;-87
2023/05/29 09:58:12;;;;;;;7.78;4.10;;;;;;;;;;5009155;28;20066;-87
2023/05/29 10:00:38;;;;;;;6.30;4.22;;;;;;;;;;4994546;28;20034;-87
2023/05/29 10:03:04;;;;;;;15.13;4.55;;;;;;;;;;4992306;28;20035;-87
2023/05/29 10:05:30;;;;;;;6.82;3.60;;;;;;;;;;5008404;28;20069;-87
2023/05/29 10:07:55;;;;;;;7.10;3.90;;;;;;;;;;5007857;28;20067;-88
2023/05/29 10:10:24;;;;;;;5.75;3.85;;;;;;;;;;5001906;28;20038;-87
2023/05/29 10:12:50;;;;;;;10.75;3.97;;;;;;;;;;5005406;28;20031;-86
2023/05/29 10:15:18;;;;;;;7.18;3.90;;;;;;;;;;4988695;28;20047;-88
2023/05/29 10:17:56;;;;;;;8.95;3.90;;;;;;;;;;4991258;28;20453;-88
2023/05/29 10:20:23;;;;;;;8.77;3.75;;;;;;;;;;5008311;28;20076;-86
2023/05/29 10:22:51;;;;;;;7.20;4.15;;;;;;;;;;5001155;28;20030;-87
2023/05/29 10:25:21;;;;;;;7.55;4.20;;;;;;;;;;5007278;28;20532;-87
2023/05/29 10:27:48;;;;;;;6.00;3.95;;;;;;;;;;5002560;28;20041;-87
2023/05/29 10:30:38;;;;;;;8.73;4.00;;;;;;;;;;4999918;28;20034;-87
2023/05/29 10:33:09;;;;;;;8.98;3.83;;;;;;;;;;5003856;28;20037;-87
2023/05/29 10:35:46;;;;;;;7.78;4.07;;;;;;;;;;4995521;28;20034;-87
2023/05/29 10:38:15;;;;;;;7.85;4.13;;;;;;;;;;4996175;28;20048;-87
2023/05/29 10:40:40;;;;;;;6.85;4.03;;;;;;;;;;5001273;28;20061;-87
2023/05/29 10:43:09;;;;;;;5.95;3.80;;;;;;;;;;4994649;28;20035;-86
2023/05/29 10:45:37;;;;;;;6.43;4.03;;;;;;;;;;4988559;28;20039;-87
2023/05/29 10:48:06;;;;;;;7.00;3.92;;;;;;;;;;4989892;28;20038;-88
2023/05/29 10:50:40;;;;;;;5.70;3.40;;;;;;;;;;4991356;28;20050;-87
2023/05/29 10:53:07;;;;;;;6.05;4.00;;;;;;;;;;5001231;28;20038;-87
2023/05/29 10:55:37;;;;;;;7.63;3.67;;;;;;;;;;5005809;28;20468;-87
2023/05/29 10:58:12;;;;;;;7.32;4.00;;;;;;;;;;4997346;28;20030;-88
2023/05/29 11:00:42;;;;;;;6.30;3.78;;;;;;;;;;4995350;28;20046;-87
2023/05/29 11:03:08;;;;;;;9.23;4.30;;;;;;;;;;4986039;28;20034;-86
2023/05/29 11:05:34;;;;;;;8.30;4.32;;;;;;;;;;4985184;28;20026;-87
2023/05/29 11:08:03;;;;;;;7.40;4.05;;;;;;;;;;5016809;28;20108;-88
2023/05/29 11:10:56;;;;;;;8.75;4.10;;;;;;;;;;4991019;28;20107;-89
2023/05/29 11:13:26;;;;;;;8.60;4.38;;;;;;;;;;5018550;23;20049;-86
2023/05/29 11:16:19;;;;;;;6.47;4.13;;;;;;;;;;4991137;28;20042;-88
2023/05/29 11:18:48;;;;;;;7.70;4.40;;;;;;;;;;5016432;28;20042;-87
2023/05/29 11:21:42;;;;;;;9.32;4.30;;;;;;;;;;4984681;28;20057;-86
2023/05/29 11:24:13;;;;;;;8.50;4.03;;;;;;;;;;4993547;28;20109;-85
2023/05/29 11:26:38;;;;;;;7.68;4.45;;;;;;;;;;4997360;28;20038;-86
2023/05/29 11:29:06;;;;;;;6.60;4.60;;;;;;;;;;4990469;28;20042;-85
2023/05/29 11:31:34;;;;;;;12.65;4.70;;;;;;;;;;4997785;28;20066;-84
2023/05/29 11:34:04;;;;;;;9.82;4.70;;;;;;;;;;4997606;28;20035;-84
2023/05/29 11:36:33;;;;;;;7.65;4.40;;;;;;;;;;4995381;28;20034;-84
2023/05/29 11:39:00;;;;;;;7.45;4.30;;;;;;;;;;4979394;28;20038;-85
2023/05/29 11:41:26;;;;;;;8.35;4.47;;;;;;;;;;4983111;28;20053;-84
2023/05/29 11:44:05;;;;;;;7.07;4.30;;;;;;;;;;4984983;28;20041;-83
2023/05/29 11:46:32;;;;;;;7.15;4.50;;;;;;;;;;5000495;28;20045;-86
2023/05/29 11:49:01;;;;;;;9.90;4.65;;;;;;;;;;4990553;28;20038;-86
2023/05/29 11:51:28;;;;;;;6.78;4.40;;;;;;;;;;4991628;28;20477;-84
2023/05/29 11:53:58;;;;;;;8.48;4.75;;;;;;;;;;5007874;28;20509;-83
2023/05/29 11:56:30;;;;;;;7.22;4.47;;;;;;;;;;4976275;28;20489;-86
2023/05/29 11:58:59;;;;;;;9.00;4.38;;;;;;;;;;4983948;28;20038;-84
2023/05/29 12:01:25;;;;;;;15.63;5.35;;;;;;;;;;4981449;28;20038;-86
2023/05/29 12:03:52;;;;;;;15.55;5.10;;;;;;;;;;4988982;28;20103;-85
2023/05/29 12:06:32;;;;;;;7.22;4.55;;;;;;;;;;4992718;28;20038;-84
2023/05/29 12:08:57;;;;;;;8.55;4.55;;;;;;;;;;4996904;28;20042;-85
2023/05/29 12:11:26;;;;;;;11.15;4.63;;;;;;;;;;4996126;28;20064;-84
2023/05/29 12:13:59;;;;;;;6.60;4.40;;;;;;;;;;4982644;28;20501;-85
2023/05/29 12:16:30;;;;;;;8.73;4.20;;;;;;;;;;4992523;28;20034;-85
2023/05/29 12:18:56;;;;;;;6.22;4.00;;;;;;;;;;4984901;28;20042;-84
2023/05/29 12:21:24;;;;;;;9.02;4.43;;;;;;;;;;4982008;28;20034;-85
2023/05/29 12:23:52;;;;;;;10.30;4.55;;;;;;;;;;4995434;28;20038;-84
2023/05/29 12:26:20;;;;;;;8.82;4.60;;;;;;;;;;4992415;28;20027;-85
2023/05/29 12:28:45;;;;;;;8.07;4.57;;;;;;;;;;4979185;28;20034;-85
2023/05/29 12:31:11;;;;;;;8.85;4.57;;;;;;;;;;4996248;28;20096;-84
2023/05/29 12:33:42;;;;;;;10.30;5.93;;;;;;;;;;4985076;28;20042;-84
2023/05/29 12:36:10;;;;;;;12.25;8.10;;;;;;;;;;4987812;28;20125;-84
2023/05/29 12:38:50;;;;;;;16.35;11.10;;;;;;;;;;4994550;28;20408;-84
2023/05/29 12:41:26;;;;;;;8.40;5.03;;;;;;;;;;5009185;28;20109;-85
2023/05/29 12:44:00;;;;;;;11.18;7.40;;;;;;;;;;4995290;28;20134;-85
2023/05/29 12:46:27;;;;;;;7.82;4.82;;;;;;;;;;4993875;28;20045;-84
2023/05/29 12:48:54;;;;;;;11.25;6.65;;;;;;;;;;4989467;28;20120;-84
2023/05/29 12:51:24;;;;;;;13.00;8.40;;;;;;;;;;4985827;28;20041;-83
2023/05/29 12:53:50;;;;;;;11.70;5.50;;;;;;;;;;4989351;28;20085;-85
2023/05/29 12:56:15;;;;;;;10.10;5.80;;;;;;;;;;4989460;28;20031;-85
2023/05/29 12:58:40;;;;;;;10.85;6.40;;;;;;;;;;4988553;28;20035;-83
2023/05/29 13:01:13;;;;;;;12.52;7.95;;;;;;;;;;4989431;28;20039;-85
2023/05/29 13:03:39;;;;;;;9.00;5.68;;;;;;;;;;4978156;28;20046;-85
2023/05/29 13:06:05;;;;;;;7.65;4.13;;;;;;;;;;4981162;28;20030;-84
2023/05/29 13:08:30;;;;;;;8.98;4.18;;;;;;;;;;4998215;28;20074;-84
2023/05/29 13:10:56;;;;;;;9.80;4.45;;;;;;;;;;4994999;28;20034;-84
2023/05/29 13:13:22;;;;;;;8.15;4.10;;;;;;;;;;4999983;28;20128;-84
2023/05/29 13:15:47;;;;;;;6.43;4.35;;;;;;;;;;5009869;28;20030;-84
2023/05/29 13:18:13;;;;;;;7.43;4.40;;;;;;;;;;4979505;28;20049;-83
2023/05/29 13:20:38;;;;;;;8.82;4.70;;;;;;;;;;4983016;28;20070;-84
2023/05/29 13:23:04;;;;;;;8.23;4.28;;;;;;;;;;4985532;28;20038;-85
2023/05/29 13:25:29;;;;;;;7.15;5.38;;;;;;;;;;4988126;28;20121;-85
2023/05/29 13:27:55;;;;;;;6.38;4.30;;;;;;;;;;4990777;28;20041;-84
2023/05/29 13:30:21;;;;;;;6.43;4.00;;;;;;;;;;4994268;28;20049;-83
2023/05/29 13:32:47;;;;;;;8.05;4.20;;;;;;;;;;4992741;28;20035;-83
2023/05/29 13:35:13;;;;;;;8.85;4.43;;;;;;;;;;4980003;28;20097;-85
2023/05/29 13:37:39;;;;;;;7.50;4.30;;;;;;;;;;4985303;28;20038;-86
2023/05/29 13:40:08;;;;;;;7.00;4.22;;;;;;;;;;4987300;28;20277;-85
2023/05/29 13:42:34;;;;;;;5.15;4.00;;;;;;;;;;4988097;28;20666;-85
2023/05/29 13:44:59;;;;;;;7.40;4.43;;;;;;;;;;4983939;28;20041;-84
2023/05/29 13:47:28;;;;;;;6.45;4.03;;;;;;;;;;4998216;28;20058;-85
2023/05/29 13:49:54;;;;;;;9.93;4.70;;;;;;;;;;4997192;28;20524;-84
2023/05/29 13:52:19;;;;;;;7.50;4.30;;;;;;;;;;4982981;28;20053;-85
2023/05/29 13:54:45;;;;;;;7.30;3.72;;;;;;;;;;4987165;28;20096;-84
2023/05/29 13:57:10;;;;;;;6.68;3.95;;;;;;;;;;4995436;28;20027;-83
2023/05/29 13:59:36;;;;;;;6.15;3.92;;;;;;;;;;4994705;28;20073;-83
2023/05/29 14:02:02;;;;;;;8.43;4.55;;;;;;;;;;4989315;28;20114;-86
2023/05/29 14:04:31;;;;;;;6.35;4.03;;;;;;;;;;4997831;28;20065;-86
2023/05/29 14:06:57;;;;;;;8.05;4.00;;;;;;;;;;4986210;28;20058;-86
2023/05/29 14:09:27;;;;;;;7.00;4.05;;;;;;;;;;4986026;28;20085;-84
2023/05/29 14:11:57;;;;;;;10.07;6.60;;;;;;;;;;5003809;28;20042;-83
2023/05/29 14:14:23;;;;;;;6.78;4.10;;;;;;;;;;4988425;28;20031;-83
2023/05/29 14:16:49;;;;;;;8.52;4.15;;;;;;;;;;4990488;28;20093;-84
2023/05/29 14:19:15;;;;;;;6.50;3.90;;;;;;;;;;4991433;28;20133;-85
2023/05/29 14:21:42;;;;;;;9.10;5.72;;;;;;;;;;5010203;28;20100;-84
2023/05/29 14:24:08;;;;;;;8.25;4.65;;;;;;;;;;4999765;28;20049;-84
2023/05/29 14:26:33;;;;;;;7.65;4.15;;;;;;;;;;5008826;28;20046;-84
2023/05/29 14:28:59;;;;;;;7.57;3.90;;;;;;;;;;4990376;28;20045;-84
2023/05/29 14:31:24;;;;;;;10.65;7.03;;;;;;;;;;4995893;28;20034;-84
2023/05/29 14:33:50;;;;;;;11.05;6.85;;;;;;;;;;4984772;28;20038;-87
2023/05/29 14:36:15;;;;;;;10.60;5.80;;;;;;;;;;5001601;28;20117;-85
2023/05/29 14:38:42;;;;;;;8.70;4.30;;;;;;;;;;4999277;28;20070;-86
2023/05/29 14:41:08;;;;;;;10.98;6.55;;;;;;;;;;5002508;28;20057;-85
2023/05/29 14:43:33;;;;;;;7.93;4.63;;;;;;;;;;4998375;28;20034;-85
2023/05/29 14:45:59;;;;;;;7.05;4.07;;;;;;;;;;4985524;28;20072;-85
2023/05/29 14:48:24;;;;;;;7.47;3.53;;;;;;;;;;4994744;28;20043;-83